sensor_id;sensor_type;location;lat;lon;timestamp;temperature;humidity
24462;DHT22;12631;50.860;5.714;2022-10-03T00:01:21;10.40;99.90
24462;DHT22;12631;50.860;5.714;2022-10-03T00:04:04;10.20;99.90
24462;DHT22;12631;50.860;5.714;2022-10-03T00:06:42;10.40;99.90
24462;DHT22;12631;50.860;5.714;2022-10-03T00:09:29;10.60;99.90
24462;DHT22;12631;50.860;5.714;2022-10-03T00:12:11;10.70;99.90
24462;DHT22;12631;50.860;5.714;2022-10-03T00:14:45;10.70;99.90
24462;DHT22;12631;50.860;5.714;2022-10-03T00:17:24;10.60;99.90
24462;DHT22;12631;50.860;5.714;2022-10-03T00:20:00;10.70;99.90
24462;DHT22;12631;50.860;5.714;2022-10-03T00:22:35;10.70;99.90
24462;DHT22;12631;50.860;5.714;2022-10-03T00:25:21;10.70;99.90
24462;DHT22;12631;50.860;5.714;2022-10-03T00:28:02;10.70;99.90
24462;DHT22;12631;50.860;5.714;2022-10-03T00:30:51;10.70;99.90
24462;DHT22;12631;50.860;5.714;2022-10-03T00:33:28;10.80;99.90
24462;DHT22;12631;50.860;5.714;2022-10-03T00:36:03;10.70;99.90
24462;DHT22;12631;50.860;5.714;2022-10-03T00:38:51;10.70;99.90
24462;DHT22;12631;50.860;5.714;2022-10-03T00:41:48;10.70;99.90
24462;DHT22;12631;50.860;5.714;2022-10-03T00:44:51;10.70;99.90
24462;DHT22;12631;50.860;5.714;2022-10-03T00:47:58;10.70;99.90
24462;DHT22;12631;50.860;5.714;2022-10-03T00:51:00;10.60;99.90
24462;DHT22;12631;50.860;5.714;2022-10-03T00:53:48;10.60;99.90
24462;DHT22;12631;50.860;5.714;2022-10-03T00:56:35;10.60;99.90
24462;DHT22;12631;50.860;5.714;2022-10-03T00:59:22;10.60;99.90
24462;DHT22;12631;50.860;5.714;2022-10-03T01:01:54;10.60;99.90
24462;DHT22;12631;50.860;5.714;2022-10-03T01:04:44;10.50;99.90
24462;DHT22;12631;50.860;5.714;2022-10-03T01:07:27;10.50;99.90
24462;DHT22;12631;50.860;5.714;2022-10-03T01:10:05;10.50;99.90
24462;DHT22;12631;50.860;5.714;2022-10-03T01:12:52;10.50;99.90
24462;DHT22;12631;50.860;5.714;2022-10-03T01:15:35;10.50;99.90
24462;DHT22;12631;50.860;5.714;2022-10-03T01:18:14;10.40;99.90
24462;DHT22;12631;50.860;5.714;2022-10-03T01:20:52;10.40;99.90
24462;DHT22;12631;50.860;5.714;2022-10-03T01:23:43;10.40;99.90
24462;DHT22;12631;50.860;5.714;2022-10-03T01:26:25;10.20;99.90
24462;DHT22;12631;50.860;5.714;2022-10-03T01:29:04;10.30;99.90
24462;DHT22;12631;50.860;5.714;2022-10-03T01:31:54;10.30;99.90
24462;DHT22;12631;50.860;5.714;2022-10-03T01:34:27;10.30;99.90
24462;DHT22;12631;50.860;5.714;2022-10-03T01:37:06;10.30;99.90
24462;DHT22;12631;50.860;5.714;2022-10-03T01:39:41;10.30;99.90
24462;DHT22;12631;50.860;5.714;2022-10-03T01:42:15;10.30;99.90
24462;DHT22;12631;50.860;5.714;2022-10-03T01:44:59;10.40;99.90
24462;DHT22;12631;50.860;5.714;2022-10-03T01:47:33;10.30;99.90
24462;DHT22;12631;50.860;5.714;2022-10-03T01:50:12;10.30;99.90
24462;DHT22;12631;50.860;5.714;2022-10-03T01:52:51;10.30;99.90
24462;DHT22;12631;50.860;5.714;2022-10-03T01:55:24;10.30;99.90
24462;DHT22;12631;50.860;5.714;2022-10-03T01:57:58;10.30;99.90
24462;DHT22;12631;50.860;5.714;2022-10-03T02:00:35;10.20;99.90
24462;DHT22;12631;50.860;5.714;2022-10-03T02:03:13;10.20;99.90
24462;DHT22;12631;50.860;5.714;2022-10-03T02:05:48;10.20;99.90
24462;DHT22;12631;50.860;5.714;2022-10-03T02:08:26;10.20;99.90
24462;DHT22;12631;50.860;5.714;2022-10-03T02:11:00;10.10;99.90
24462;DHT22;12631;50.860;5.714;2022-10-03T02:13:39;10.10;99.90
24462;DHT22;12631;50.860;5.714;2022-10-03T02:16:14;10.10;99.90
24462;DHT22;12631;50.860;5.714;2022-10-03T02:18:48;10.10;99.90
24462;DHT22;12631;50.860;5.714;2022-10-03T02:21:18;10.10;99.90
24462;DHT22;12631;50.860;5.714;2022-10-03T02:23:48;10.00;99.90
24462;DHT22;12631;50.860;5.714;2022-10-03T02:29:44;10.00;99.90
24462;DHT22;12631;50.860;5.714;2022-10-03T02:32:56;10.00;99.90
24462;DHT22;12631;50.860;5.714;2022-10-03T02:35:49;10.00;99.90
24462;DHT22;12631;50.860;5.714;2022-10-03T02:38:31;10.00;99.90
24462;DHT22;12631;50.860;5.714;2022-10-03T02:41:19;10.00;99.90
24462;DHT22;12631;50.860;5.714;2022-10-03T02:47:21;10.00;99.90
24462;DHT22;12631;50.860;5.714;2022-10-03T02:53:37;10.00;99.90
24462;DHT22;12631;50.860;5.714;2022-10-03T02:56:47;10.10;99.90
24462;DHT22;12631;50.860;5.714;2022-10-03T02:59:41;10.00;99.90
24462;DHT22;12631;50.860;5.714;2022-10-03T03:02:42;10.10;99.90
24462;DHT22;12631;50.860;5.714;2022-10-03T03:05:27;10.10;99.90
24462;DHT22;12631;50.860;5.714;2022-10-03T03:11:21;10.10;99.90
24462;DHT22;12631;50.860;5.714;2022-10-03T03:17:15;10.10;99.90
24462;DHT22;12631;50.860;5.714;2022-10-03T03:20:02;10.00;99.90
24462;DHT22;12631;50.860;5.714;2022-10-03T03:22:45;10.00;99.90
24462;DHT22;12631;50.860;5.714;2022-10-03T03:25:34;10.00;99.90
24462;DHT22;12631;50.860;5.714;2022-10-03T03:28:16;10.00;99.90
24462;DHT22;12631;50.860;5.714;2022-10-03T03:30:52;10.00;99.90
24462;DHT22;12631;50.860;5.714;2022-10-03T03:33:27;10.00;99.90
24462;DHT22;12631;50.860;5.714;2022-10-03T03:36:04;9.90;99.90
24462;DHT22;12631;50.860;5.714;2022-10-03T03:38:42;9.90;99.90
24462;DHT22;12631;50.860;5.714;2022-10-03T03:41:24;9.90;99.90
24462;DHT22;12631;50.860;5.714;2022-10-03T03:44:23;9.80;99.90
24462;DHT22;12631;50.860;5.714;2022-10-03T03:47:08;9.70;99.90
24462;DHT22;12631;50.860;5.714;2022-10-03T03:49:52;9.70;99.90
24462;DHT22;12631;50.860;5.714;2022-10-03T03:52:38;9.60;99.90
24462;DHT22;12631;50.860;5.714;2022-10-03T03:58:19;9.50;99.90
24462;DHT22;12631;50.860;5.714;2022-10-03T04:01:25;9.50;99.90
24462;DHT22;12631;50.860;5.714;2022-10-03T04:04:04;9.50;99.90
24462;DHT22;12631;50.860;5.714;2022-10-03T04:06:44;9.50;99.90
24462;DHT22;12631;50.860;5.714;2022-10-03T04:09:28;9.50;99.90
24462;DHT22;12631;50.860;5.714;2022-10-03T04:12:03;9.50;99.90
24462;DHT22;12631;50.860;5.714;2022-10-03T04:14:56;9.40;99.90
24462;DHT22;12631;50.860;5.714;2022-10-03T04:17:45;9.40;99.90
24462;DHT22;12631;50.860;5.714;2022-10-03T04:20:45;9.40;99.90
24462;DHT22;12631;50.860;5.714;2022-10-03T04:23:28;9.40;99.90
24462;DHT22;12631;50.860;5.714;2022-10-03T04:26:10;9.40;99.90
24462;DHT22;12631;50.860;5.714;2022-10-03T04:29:04;9.40;99.90
24462;DHT22;12631;50.860;5.714;2022-10-03T04:31:42;9.40;99.90
24462;DHT22;12631;50.860;5.714;2022-10-03T04:34:27;9.40;99.90
24462;DHT22;12631;50.860;5.714;2022-10-03T04:37:16;9.40;99.90
24462;DHT22;12631;50.860;5.714;2022-10-03T04:39:51;9.40;99.90
24462;DHT22;12631;50.860;5.714;2022-10-03T04:42:35;9.40;99.90
24462;DHT22;12631;50.860;5.714;2022-10-03T04:45:18;9.50;99.90
24462;DHT22;12631;50.860;5.714;2022-10-03T04:47:58;9.50;99.90
24462;DHT22;12631;50.860;5.714;2022-10-03T04:50:36;9.60;99.90
24462;DHT22;12631;50.860;5.714;2022-10-03T04:53:20;9.50;99.90
24462;DHT22;12631;50.860;5.714;2022-10-03T04:55:51;9.60;99.90
24462;DHT22;12631;50.860;5.714;2022-10-03T04:58:35;9.60;99.90
24462;DHT22;12631;50.860;5.714;2022-10-03T05:01:05;9.60;99.90
24462;DHT22;12631;50.860;5.714;2022-10-03T05:03:46;9.60;99.90
24462;DHT22;12631;50.860;5.714;2022-10-03T05:06:30;9.60;99.90
24462;DHT22;12631;50.860;5.714;2022-10-03T05:09:11;9.60;99.90
24462;DHT22;12631;50.860;5.714;2022-10-03T05:11:52;9.50;99.90
24462;DHT22;12631;50.860;5.714;2022-10-03T05:14:26;9.60;99.90
24462;DHT22;12631;50.860;5.714;2022-10-03T05:17:08;9.60;99.90
24462;DHT22;12631;50.860;5.714;2022-10-03T05:23:06;9.70;99.90
24462;DHT22;12631;50.860;5.714;2022-10-03T05:25:45;9.70;99.90
24462;DHT22;12631;50.860;5.714;2022-10-03T05:28:26;9.60;99.90
24462;DHT22;12631;50.860;5.714;2022-10-03T05:31:01;9.60;99.90
24462;DHT22;12631;50.860;5.714;2022-10-03T05:33:37;9.60;99.90
24462;DHT22;12631;50.860;5.714;2022-10-03T05:36:12;9.60;99.90
24462;DHT22;12631;50.860;5.714;2022-10-03T05:45:20;9.70;99.90
24462;DHT22;12631;50.860;5.714;2022-10-03T05:47:52;9.80;99.90
24462;DHT22;12631;50.860;5.714;2022-10-03T05:53:58;9.80;99.90
24462;DHT22;12631;50.860;5.714;2022-10-03T05:56:48;10.00;99.90
24462;DHT22;12631;50.860;5.714;2022-10-03T05:59:45;9.90;99.90
24462;DHT22;12631;50.860;5.714;2022-10-03T06:02:41;10.00;99.90
24462;DHT22;12631;50.860;5.714;2022-10-03T06:05:43;10.00;99.90
24462;DHT22;12631;50.860;5.714;2022-10-03T06:08:45;10.00;99.90
24462;DHT22;12631;50.860;5.714;2022-10-03T06:11:25;10.00;99.90
24462;DHT22;12631;50.860;5.714;2022-10-03T06:17:41;10.00;99.90
24462;DHT22;12631;50.860;5.714;2022-10-03T06:20:39;10.00;99.90
24462;DHT22;12631;50.860;5.714;2022-10-03T06:23:26;10.00;99.90
24462;DHT22;12631;50.860;5.714;2022-10-03T06:26:31;10.10;99.90
24462;DHT22;12631;50.860;5.714;2022-10-03T06:29:27;10.00;99.90
24462;DHT22;12631;50.860;5.714;2022-10-03T06:32:29;10.10;99.90
24462;DHT22;12631;50.860;5.714;2022-10-03T06:41:31;10.20;99.90
24462;DHT22;12631;50.860;5.714;2022-10-03T06:44:20;10.20;99.90
24462;DHT22;12631;50.860;5.714;2022-10-03T06:50:21;10.50;99.90
24462;DHT22;12631;50.860;5.714;2022-10-03T06:53:14;10.50;99.90
24462;DHT22;12631;50.860;5.714;2022-10-03T06:59:00;10.50;99.90
24462;DHT22;12631;50.860;5.714;2022-10-03T07:08:28;10.50;99.90
